CheckWX is a tool to help pilots better visualize weather data.  It is not intended as a substitute for an official pre-flight weather briefing.

01:03:25 UTC

CYOD METAR
CFB Cold Lake Airport
Cold Lake, Canada
Current

1 hour ago

CYOD 200000Z 28004KT 15SM FEW045 SCT060 16/06 A2999 RMK SC2SC2 SLP168
Observed
Aug-20 @ 00:00 UTC
Wind
  • 280° at 4 KTS
Visibility
15 SM
Flight Rules
VFR
Cloud Levels
  • Few at 4,500' AGL
  • Scattered at 6,000' AGL
Temperature
16°C / 61°F
Dewpoint
C / 43°F
Humidity
52%
Altimeter
29.99" Hg
Pressure
1015.62 hPa
Previous

2 hours ago

CYOD 192300Z 31008KT 15SM FEW045 BKN060 16/06 A2998 RMK SC2SC4 SLP165
Observed
Aug-19 @ 23:00 UTC
Wind
  • 310° at 8 KTS
Visibility
15 SM
Flight Rules
VFR
Cloud Levels
  • Few at 4,500' AGL
  • Broken at 6,000' AGL
Temperature
16°C / 61°F
Dewpoint
C / 43°F
Humidity
52%
Altimeter
29.98" Hg
Pressure
1015.22 hPa
Previous

3 hours ago

CYOD 192200Z 30008KT 15SM FEW040 BKN060 16/06 A2997 RMK SC2SC5 SLP162
Observed
Aug-19 @ 22:00 UTC
Wind
  • 300° at 8 KTS
Visibility
15 SM
Flight Rules
VFR
Cloud Levels
  • Few at 4,000' AGL
  • Broken at 6,000' AGL
Temperature
16°C / 61°F
Dewpoint
C / 43°F
Humidity
52%
Altimeter
29.97" Hg
Pressure
1014.92 hPa